sensor_id;sensor_type;location;lat;lon;timestamp;temperature;humidity
60309;DHT22;50313;52.894;6.492;2023-05-10T00:00:52;12.80;99.90
60309;DHT22;50313;52.894;6.492;2023-05-10T00:03:18;12.70;99.90
60309;DHT22;50313;52.894;6.492;2023-05-10T00:05:44;12.70;99.90
60309;DHT22;50313;52.894;6.492;2023-05-10T00:08:10;12.80;99.90
60309;DHT22;50313;52.894;6.492;2023-05-10T00:10:35;12.80;99.90
60309;DHT22;50313;52.894;6.492;2023-05-10T00:13:02;12.70;99.90
60309;DHT22;50313;52.894;6.492;2023-05-10T00:15:28;12.70;99.90
60309;DHT22;50313;52.894;6.492;2023-05-10T00:17:56;12.80;99.90
60309;DHT22;50313;52.894;6.492;2023-05-10T00:20:25;12.70;99.90
60309;DHT22;50313;52.894;6.492;2023-05-10T00:22:51;12.70;99.90
60309;DHT22;50313;52.894;6.492;2023-05-10T00:25:16;12.70;99.90
60309;DHT22;50313;52.894;6.492;2023-05-10T00:27:42;12.70;99.90
60309;DHT22;50313;52.894;6.492;2023-05-10T00:30:08;12.70;99.90
60309;DHT22;50313;52.894;6.492;2023-05-10T00:32:34;12.70;99.90
60309;DHT22;50313;52.894;6.492;2023-05-10T00:35:00;12.70;99.90
60309;DHT22;50313;52.894;6.492;2023-05-10T00:37:25;12.70;99.90
60309;DHT22;50313;52.894;6.492;2023-05-10T00:39:51;12.70;99.90
60309;DHT22;50313;52.894;6.492;2023-05-10T00:42:17;12.70;99.90
60309;DHT22;50313;52.894;6.492;2023-05-10T00:44:43;12.70;99.90
60309;DHT22;50313;52.894;6.492;2023-05-10T00:47:08;12.70;99.90
60309;DHT22;50313;52.894;6.492;2023-05-10T00:49:35;12.70;99.90
60309;DHT22;50313;52.894;6.492;2023-05-10T00:52:01;12.70;99.90
60309;DHT22;50313;52.894;6.492;2023-05-10T00:54:28;12.60;99.90
60309;DHT22;50313;52.894;6.492;2023-05-10T00:56:54;12.60;99.90
60309;DHT22;50313;52.894;6.492;2023-05-10T00:59:22;12.60;99.90
60309;DHT22;50313;52.894;6.492;2023-05-10T01:01:48;12.70;99.90
60309;DHT22;50313;52.894;6.492;2023-05-10T01:04:14;12.60;99.90
60309;DHT22;50313;52.894;6.492;2023-05-10T01:06:43;12.60;99.90
60309;DHT22;50313;52.894;6.492;2023-05-10T01:09:09;12.60;99.90
60309;DHT22;50313;52.894;6.492;2023-05-10T01:11:38;12.60;99.90
60309;DHT22;50313;52.894;6.492;2023-05-10T01:14:05;12.60;99.90
60309;DHT22;50313;52.894;6.492;2023-05-10T01:16:39;12.60;99.90
60309;DHT22;50313;52.894;6.492;2023-05-10T01:19:35;12.60;99.90
60309;DHT22;50313;52.894;6.492;2023-05-10T01:30:37;12.60;99.90
60309;DHT22;50313;52.894;6.492;2023-05-10T01:33:30;12.60;99.90
60309;DHT22;50313;52.894;6.492;2023-05-10T01:38:33;12.50;99.90
60309;DHT22;50313;52.894;6.492;2023-05-10T01:43:36;12.50;99.90
60309;DHT22;50313;52.894;6.492;2023-05-10T01:46:07;12.50;99.90
60309;DHT22;50313;52.894;6.492;2023-05-10T01:48:46;12.50;99.90
60309;DHT22;50313;52.894;6.492;2023-05-10T01:51:15;12.50;99.90
60309;DHT22;50313;52.894;6.492;2023-05-10T01:53:42;12.50;99.90
60309;DHT22;50313;52.894;6.492;2023-05-10T01:56:11;12.50;99.90
60309;DHT22;50313;52.894;6.492;2023-05-10T01:58:39;12.50;99.90
60309;DHT22;50313;52.894;6.492;2023-05-10T02:01:07;12.50;99.90
60309;DHT22;50313;52.894;6.492;2023-05-10T02:03:35;12.40;99.90
60309;DHT22;50313;52.894;6.492;2023-05-10T02:06:03;12.50;99.90
60309;DHT22;50313;52.894;6.492;2023-05-10T02:08:30;12.50;99.90
60309;DHT22;50313;52.894;6.492;2023-05-10T02:10:56;12.40;99.90
60309;DHT22;50313;52.894;6.492;2023-05-10T02:13:25;12.40;99.90
60309;DHT22;50313;52.894;6.492;2023-05-10T02:15:53;12.50;99.90
60309;DHT22;50313;52.894;6.492;2023-05-10T02:18:20;12.50;99.90
60309;DHT22;50313;52.894;6.492;2023-05-10T02:20:48;12.50;99.90
60309;DHT22;50313;52.894;6.492;2023-05-10T02:23:14;12.40;99.90
60309;DHT22;50313;52.894;6.492;2023-05-10T02:25:42;12.50;99.90
60309;DHT22;50313;52.894;6.492;2023-05-10T02:28:10;12.40;99.90
60309;DHT22;50313;52.894;6.492;2023-05-10T02:30:37;12.40;99.90
60309;DHT22;50313;52.894;6.492;2023-05-10T02:33:04;12.40;99.90
60309;DHT22;50313;52.894;6.492;2023-05-10T02:35:31;12.40;99.90
60309;DHT22;50313;52.894;6.492;2023-05-10T02:37:59;12.40;99.90
60309;DHT22;50313;52.894;6.492;2023-05-10T02:40:27;12.40;99.90
60309;DHT22;50313;52.894;6.492;2023-05-10T02:42:55;12.40;99.90
60309;DHT22;50313;52.894;6.492;2023-05-10T02:45:27;12.40;99.90
60309;DHT22;50313;52.894;6.492;2023-05-10T02:47:53;12.40;99.90
60309;DHT22;50313;52.894;6.492;2023-05-10T02:50:19;12.40;99.90
60309;DHT22;50313;52.894;6.492;2023-05-10T02:52:47;12.40;99.90
60309;DHT22;50313;52.894;6.492;2023-05-10T02:55:16;12.40;99.90
60309;DHT22;50313;52.894;6.492;2023-05-10T02:57:58;12.40;99.90
60309;DHT22;50313;52.894;6.492;2023-05-10T03:00:24;12.40;99.90
60309;DHT22;50313;52.894;6.492;2023-05-10T03:02:50;12.40;99.90
60309;DHT22;50313;52.894;6.492;2023-05-10T03:05:16;12.40;99.90
60309;DHT22;50313;52.894;6.492;2023-05-10T03:07:42;12.40;99.90
60309;DHT22;50313;52.894;6.492;2023-05-10T03:10:09;12.40;99.90
60309;DHT22;50313;52.894;6.492;2023-05-10T03:15:34;12.30;99.90
60309;DHT22;50313;52.894;6.492;2023-05-10T03:18:22;12.30;99.90
60309;DHT22;50313;52.894;6.492;2023-05-10T03:20:50;12.30;99.90
60309;DHT22;50313;52.894;6.492;2023-05-10T03:23:58;12.30;99.90
60309;DHT22;50313;52.894;6.492;2023-05-10T03:26:27;12.30;99.90
60309;DHT22;50313;52.894;6.492;2023-05-10T03:28:55;12.30;99.90
60309;DHT22;50313;52.894;6.492;2023-05-10T03:31:21;12.30;99.90
60309;DHT22;50313;52.894;6.492;2023-05-10T03:33:50;12.30;99.90
60309;DHT22;50313;52.894;6.492;2023-05-10T03:36:16;12.20;99.90
60309;DHT22;50313;52.894;6.492;2023-05-10T03:38:42;12.20;99.90
60309;DHT22;50313;52.894;6.492;2023-05-10T03:41:08;12.20;99.90
60309;DHT22;50313;52.894;6.492;2023-05-10T03:44:31;12.20;99.90
60309;DHT22;50313;52.894;6.492;2023-05-10T03:46:34;12.20;99.90
60309;DHT22;50313;52.894;6.492;2023-05-10T03:49:03;12.20;99.90
60309;DHT22;50313;52.894;6.492;2023-05-10T03:51:28;12.20;99.90
60309;DHT22;50313;52.894;6.492;2023-05-10T03:53:56;12.20;99.90
60309;DHT22;50313;52.894;6.492;2023-05-10T03:56:22;12.20;99.90
60309;DHT22;50313;52.894;6.492;2023-05-10T03:58:48;12.20;99.90
60309;DHT22;50313;52.894;6.492;2023-05-10T04:01:13;12.20;99.90
60309;DHT22;50313;52.894;6.492;2023-05-10T04:03:39;12.20;99.90
60309;DHT22;50313;52.894;6.492;2023-05-10T04:06:05;12.20;99.90
60309;DHT22;50313;52.894;6.492;2023-05-10T04:08:33;12.20;99.90
60309;DHT22;50313;52.894;6.492;2023-05-10T04:11:10;12.20;99.90
60309;DHT22;50313;52.894;6.492;2023-05-10T04:13:36;12.20;99.90
60309;DHT22;50313;52.894;6.492;2023-05-10T04:16:02;12.20;99.90
60309;DHT22;50313;52.894;6.492;2023-05-10T04:18:28;12.30;99.90
60309;DHT22;50313;52.894;6.492;2023-05-10T04:20:54;12.20;99.90
60309;DHT22;50313;52.894;6.492;2023-05-10T04:23:19;12.20;99.90
60309;DHT22;50313;52.894;6.492;2023-05-10T04:25:45;12.20;99.90
60309;DHT22;50313;52.894;6.492;2023-05-10T04:28:11;12.20;99.90
60309;DHT22;50313;52.894;6.492;2023-05-10T04:30:37;12.20;99.90
60309;DHT22;50313;52.894;6.492;2023-05-10T04:33:03;12.20;99.90
60309;DHT22;50313;52.894;6.492;2023-05-10T04:35:29;12.20;99.90
60309;DHT22;50313;52.894;6.492;2023-05-10T04:37:54;12.20;99.90
60309;DHT22;50313;52.894;6.492;2023-05-10T04:40:20;12.20;99.90
60309;DHT22;50313;52.894;6.492;2023-05-10T04:46:27;12.20;99.90
60309;DHT22;50313;52.894;6.492;2023-05-10T04:48:53;12.30;99.90
60309;DHT22;50313;52.894;6.492;2023-05-10T04:51:19;12.20;99.90
60309;DHT22;50313;52.894;6.492;2023-05-10T04:53:48;12.20;99.90
60309;DHT22;50313;52.894;6.492;2023-05-10T04:56:14;12.20;99.90
60309;DHT22;50313;52.894;6.492;2023-05-10T04:58:40;12.20;99.90
60309;DHT22;50313;52.894;6.492;2023-05-10T05:01:09;12.30;99.90
60309;DHT22;50313;52.894;6.492;2023-05-10T05:03:36;12.30;99.90
60309;DHT22;50313;52.894;6.492;2023-05-10T05:06:02;12.30;99.90
60309;DHT22;50313;52.894;6.492;2023-05-10T05:08:28;12.30;99.90
60309;DHT22;50313;52.894;6.492;2023-05-10T05:10:54;12.30;99.90
60309;DHT22;50313;52.894;6.492;2023-05-10T05:13:20;12.30;99.90
60309;DHT22;50313;52.894;6.492;2023-05-10T05:15:46;12.30;99.90
60309;DHT22;50313;52.894;6.492;2023-05-10T05:18:12;12.40;99.90
60309;DHT22;50313;52.894;6.492;2023-05-10T05:20:37;12.40;99.90
60309;DHT22;50313;52.894;6.492;2023-05-10T05:23:03;12.40;99.90
60309;DHT22;50313;52.894;6.492;2023-05-10T05:25:29;12.30;99.90
60309;DHT22;50313;52.894;6.492;2023-05-10T05:27:55;12.40;99.90
60309;DHT22;50313;52.894;6.492;2023-05-10T05:30:21;12.40;99.90
60309;DHT22;50313;52.894;6.492;2023-05-10T05:32:46;12.40;99.90
60309;DHT22;50313;52.894;6.492;2023-05-10T05:35:13;12.40;99.90
60309;DHT22;50313;52.894;6.492;2023-05-10T05:37:39;12.40;99.90
60309;DHT22;50313;52.894;6.492;2023-05-10T05:40:05;12.40;99.90
60309;DHT22;50313;52.894;6.492;2023-05-10T05:42:32;12.50;99.90
60309;DHT22;50313;52.894;6.492;2023-05-10T05:44:58;12.40;99.90
60309;DHT22;50313;52.894;6.492;2023-05-10T05:47:23;12.40;99.90
60309;DHT22;50313;52.894;6.492;2023-05-10T05:49:49;12.40;99.90
60309;DHT22;50313;52.894;6.492;2023-05-10T05:52:15;12.40;99.90
60309;DHT22;50313;52.894;6.492;2023-05-10T05:54:41;12.40;99.90
60309;DHT22;50313;52.894;6.492;2023-05-10T05:57:07;12.40;99.90
60309;DHT22;50313;52.894;6.492;2023-05-10T05:59:33;12.40;99.90
60309;DHT22;50313;52.894;6.492;2023-05-10T06:01:58;12.40;99.90
60309;DHT22;50313;52.894;6.492;2023-05-10T06:04:24;12.40;99.90
60309;DHT22;50313;52.894;6.492;2023-05-10T06:06:50;12.40;99.90
60309;DHT22;50313;52.894;6.492;2023-05-10T06:09:15;12.40;99.90
60309;DHT22;50313;52.894;6.492;2023-05-10T06:11:41;12.40;99.90
60309;DHT22;50313;52.894;6.492;2023-05-10T06:14:07;12.50;99.90
60309;DHT22;50313;52.894;6.492;2023-05-10T06:16:34;12.50;99.90
60309;DHT22;50313;52.894;6.492;2023-05-10T06:19:00;12.60;99.90
60309;DHT22;50313;52.894;6.492;2023-05-10T06:21:25;12.60;99.90
60309;DHT22;50313;52.894;6.492;2023-05-10T06:23:51;12.60;99.90
60309;DHT22;50313;52.894;6.492;2023-05-10T06:26:17;12.70;99.90
60309;DHT22;50313;52.894;6.492;2023-05-10T06:28:42;12.70;99.90
60309;DHT22;50313;52.894;6.492;2023-05-10T06:31:08;12.80;99.90
60309;DHT22;50313;52.894;6.492;2023-05-10T06:33:34;12.80;99.90
60309;DHT22;50313;52.894;6.492;2023-05-10T06:36:00;12.80;99.90
60309;DHT22;50313;52.894;6.492;2023-05-10T06:38:25;12.80;99.90
60309;DHT22;50313;52.894;6.492;2023-05-10T06:40:51;12.80;99.90
60309;DHT22;50313;52.894;6.492;2023-05-10T06:43:17;12.90;99.90
60309;DHT22;50313;52.894;6.492;2023-05-10T06:45:43;12.90;99.90
60309;DHT22;50313;52.894;6.492;2023-05-10T06:48:09;12.90;99.90
60309;DHT22;50313;52.894;6.492;2023-05-10T06:50:35;12.90;99.90
60309;DHT22;50313;52.894;6.492;2023-05-10T06:53:01;12.90;99.90
60309;DHT22;50313;52.894;6.492;2023-05-10T06:55:29;12.90;99.90
60309;DHT22;50313;52.894;6.492;2023-05-10T06:57:55;13.00;99.90
60309;DHT22;50313;52.894;6.492;2023-05-10T07:00:21;13.00;99.90
60309;DHT22;50313;52.894;6.492;2023-05-10T07:02:47;13.10;99.90
60309;DHT22;50313;52.894;6.492;2023-05-10T07:05:13;13.10;99.90
60309;DHT22;50313;52.894;6.492;2023-05-10T07:07:39;13.10;99.90
60309;DHT22;50313;52.894;6.492;2023-05-10T07:10:06;13.00;99.90
60309;DHT22;50313;52.894;6.492;2023-05-10T07:12:32;13.00;99.90
60309;DHT22;50313;52.894;6.492;2023-05-10T07:14:58;12.90;99.90
60309;DHT22;50313;52.894;6.492;2023-05-10T07:17:24;13.00;99.90
60309;DHT22;50313;52.894;6.492;2023-05-10T07:19:50;13.00;99.90
60309;DHT22;50313;52.894;6.492;2023-05-10T07:22:16;12.90;99.90
60309;DHT22;50313;52.894;6.492;2023-05-10T07:24:42;13.00;99.90
60309;DHT22;50313;52.894;6.492;2023-05-10T07:27:08;12.90;99.90
60309;DHT22;50313;52.894;6.492;2023-05-10T07:29:34;13.00;99.90
60309;DHT22;50313;52.894;6.492;2023-05-10T07:32:00;13.00;99.90
60309;DHT22;50313;52.894;6.492;2023-05-10T07:34:26;13.00;99.90
60309;DHT22;50313;52.894;6.492;2023-05-10T07:36:53;12.90;99.90
60309;DHT22;50313;52.894;6.492;2023-05-10T07:39:19;12.90;99.90
60309;DHT22;50313;52.894;6.492;2023-05-10T07:41:46;13.00;99.90
60309;DHT22;50313;52.894;6.492;2023-05-10T07:44:11;13.00;99.90
60309;DHT22;50313;52.894;6.492;2023-05-10T07:46:37;13.00;99.90
60309;DHT22;50313;52.894;6.492;2023-05-10T07:49:04;13.00;99.90
60309;DHT22;50313;52.894;6.492;2023-05-10T07:51:30;13.00;99.90
60309;DHT22;50313;52.894;6.492;2023-05-10T07:53:55;13.10;99.90
60309;DHT22;50313;52.894;6.492;2023-05-10T07:56:27;13.10;99.90
60309;DHT22;50313;52.894;6.492;2023-05-10T07:58:58;13.20;99.90
60309;DHT22;50313;52.894;6.492;2023-05-10T08:01:24;13.30;99.90
60309;DHT22;50313;52.894;6.492;2023-05-10T08:03:50;13.30;99.90
60309;DHT22;50313;52.894;6.492;2023-05-10T08:06:17;13.40;99.90
60309;DHT22;50313;52.894;6.492;2023-05-10T08:08:43;13.40;99.90
60309;DHT22;50313;52.894;6.492;2023-05-10T08:11:17;13.30;99.90
60309;DHT22;50313;52.894;6.492;2023-05-10T08:13:43;13.30;99.90
60309;DHT22;50313;52.894;6.492;2023-05-10T08:16:09;13.30;99.90
60309;DHT22;50313;52.894;6.492;2023-05-10T08:18:36;13.20;99.90
60309;DHT22;50313;52.894;6.492;2023-05-10T08:21:02;13.20;99.90
60309;DHT22;50313;52.894;6.492;2023-05-10T08:23:28;13.30;99.90
60309;DHT22;50313;52.894;6.492;2023-05-10T08:25:54;13.30;99.90
60309;DHT22;50313;52.894;6.492;2023-05-10T08:28:19;13.40;99.90
60309;DHT22;50313;52.894;6.492;2023-05-10T08:30:45;13.50;99.90
60309;DHT22;50313;52.894;6.492;2023-05-10T08:33:11;13.60;99.90
60309;DHT22;50313;52.894;6.492;2023-05-10T08:35:37;13.70;99.90
60309;DHT22;50313;52.894;6.492;2023-05-10T08:38:02;13.80;99.90
60309;DHT22;50313;52.894;6.492;2023-05-10T08:40:28;13.90;99.90
60309;DHT22;50313;52.894;6.492;2023-05-10T08:43:07;14.00;99.90
60309;DHT22;50313;52.894;6.492;2023-05-10T08:45:37;14.10;99.90
60309;DHT22;50313;52.894;6.492;2023-05-10T08:48:05;14.10;99.90
60309;DHT22;50313;52.894;6.492;2023-05-10T08:50:31;14.00;99.90
60309;DHT22;50313;52.894;6.492;2023-05-10T08:53:00;13.90;99.90
60309;DHT22;50313;52.894;6.492;2023-05-10T08:55:27;13.90;99.90
60309;DHT22;50313;52.894;6.492;2023-05-10T08:57:53;14.10;99.90
60309;DHT22;50313;52.894;6.492;2023-05-10T09:00:19;14.20;99.90
60309;DHT22;50313;52.894;6.492;2023-05-10T09:02:45;14.20;99.90
60309;DHT22;50313;52.894;6.492;2023-05-10T09:05:12;14.10;99.90
60309;DHT22;50313;52.894;6.492;2023-05-10T09:07:38;14.10;99.90
60309;DHT22;50313;52.894;6.492;2023-05-10T09:10:04;14.20;99.90
60309;DHT22;50313;52.894;6.492;2023-05-10T09:12:30;14.20;99.90
60309;DHT22;50313;52.894;6.492;2023-05-10T09:14:58;14.20;99.90
60309;DHT22;50313;52.894;6.492;2023-05-10T09:17:25;14.20;99.90
60309;DHT22;50313;52.894;6.492;2023-05-10T09:20:03;14.40;99.90
60309;DHT22;50313;52.894;6.492;2023-05-10T09:22:33;14.60;99.90
60309;DHT22;50313;52.894;6.492;2023-05-10T09:25:12;14.60;99.90
60309;DHT22;50313;52.894;6.492;2023-05-10T09:27:40;14.60;99.90
60309;DHT22;50313;52.894;6.492;2023-05-10T09:30:07;14.50;99.90
60309;DHT22;50313;52.894;6.492;2023-05-10T09:32:47;14.50;99.90
60309;DHT22;50313;52.894;6.492;2023-05-10T09:35:18;14.80;99.90
60309;DHT22;50313;52.894;6.492;2023-05-10T09:37:50;14.80;99.90
60309;DHT22;50313;52.894;6.492;2023-05-10T09:40:26;14.80;99.90
60309;DHT22;50313;52.894;6.492;2023-05-10T09:43:07;14.80;99.90
60309;DHT22;50313;52.894;6.492;2023-05-10T09:45:35;14.80;99.90
60309;DHT22;50313;52.894;6.492;2023-05-10T09:48:02;14.70;99.90
60309;DHT22;50313;52.894;6.492;2023-05-10T09:50:29;14.90;99.90
60309;DHT22;50313;52.894;6.492;2023-05-10T09:55:26;14.90;99.90
60309;DHT22;50313;52.894;6.492;2023-05-10T09:58:03;14.80;99.90
60309;DHT22;50313;52.894;6.492;2023-05-10T10:00:44;15.00;99.90
60309;DHT22;50313;52.894;6.492;2023-05-10T10:03:18;15.30;99.90
60309;DHT22;50313;52.894;6.492;2023-05-10T10:05:46;15.50;99.90
60309;DHT22;50313;52.894;6.492;2023-05-10T10:08:13;15.90;99.90
60309;DHT22;50313;52.894;6.492;2023-05-10T10:10:40;15.90;99.90
60309;DHT22;50313;52.894;6.492;2023-05-10T10:13:06;15.80;99.90
60309;DHT22;50313;52.894;6.492;2023-05-10T10:15:33;15.90;99.90
60309;DHT22;50313;52.894;6.492;2023-05-10T10:18:00;15.90;99.90
60309;DHT22;50313;52.894;6.492;2023-05-10T10:20:26;15.80;99.90
60309;DHT22;50313;52.894;6.492;2023-05-10T10:22:52;15.80;99.90
60309;DHT22;50313;52.894;6.492;2023-05-10T10:25:20;15.70;99.90
60309;DHT22;50313;52.894;6.492;2023-05-10T10:35:33;15.60;99.90
60309;DHT22;50313;52.894;6.492;2023-05-10T10:38:00;15.50;99.90
60309;DHT22;50313;52.894;6.492;2023-05-10T10:40:33;15.60;99.90
60309;DHT22;50313;52.894;6.492;2023-05-10T10:43:25;15.70;99.90
60309;DHT22;50313;52.894;6.492;2023-05-10T10:46:10;15.60;99.90
60309;DHT22;50313;52.894;6.492;2023-05-10T10:48:37;15.70;99.90
60309;DHT22;50313;52.894;6.492;2023-05-10T10:51:03;15.60;99.90
60309;DHT22;50313;52.894;6.492;2023-05-10T10:53:28;15.80;99.90
60309;DHT22;50313;52.894;6.492;2023-05-10T10:56:09;15.90;99.90
60309;DHT22;50313;52.894;6.492;2023-05-10T10:58:37;15.80;99.90
60309;DHT22;50313;52.894;6.492;2023-05-10T11:01:33;15.90;99.90
60309;DHT22;50313;52.894;6.492;2023-05-10T11:06:33;16.20;99.90
60309;DHT22;50313;52.894;6.492;2023-05-10T11:09:06;16.30;99.90
60309;DHT22;50313;52.894;6.492;2023-05-10T11:11:34;16.20;99.90
60309;DHT22;50313;52.894;6.492;2023-05-10T11:14:05;16.10;99.90
60309;DHT22;50313;52.894;6.492;2023-05-10T11:16:42;15.90;99.90
60309;DHT22;50313;52.894;6.492;2023-05-10T11:19:11;15.80;99.90
60309;DHT22;50313;52.894;6.492;2023-05-10T11:24:20;15.60;99.90
60309;DHT22;50313;52.894;6.492;2023-05-10T11:26:50;15.60;99.90
60309;DHT22;50313;52.894;6.492;2023-05-10T11:29:18;15.60;99.90
60309;DHT22;50313;52.894;6.492;2023-05-10T11:31:44;15.40;99.90
60309;DHT22;50313;52.894;6.492;2023-05-10T11:34:11;15.60;99.90
60309;DHT22;50313;52.894;6.492;2023-05-10T11:36:40;15.70;99.90
60309;DHT22;50313;52.894;6.492;2023-05-10T11:39:06;15.90;99.90
60309;DHT22;50313;52.894;6.492;2023-05-10T11:41:35;16.00;99.90
60309;DHT22;50313;52.894;6.492;2023-05-10T11:44:01;16.10;99.90
60309;DHT22;50313;52.894;6.492;2023-05-10T11:46:27;16.40;99.90
60309;DHT22;50313;52.894;6.492;2023-05-10T11:48:58;16.50;99.90
60309;DHT22;50313;52.894;6.492;2023-05-10T11:51:27;16.50;99.90
60309;DHT22;50313;52.894;6.492;2023-05-10T11:53:54;16.40;99.90
60309;DHT22;50313;52.894;6.492;2023-05-10T11:56:20;16.40;99.90
60309;DHT22;50313;52.894;6.492;2023-05-10T11:58:53;16.30;99.90
60309;DHT22;50313;52.894;6.492;2023-05-10T12:01:21;16.00;99.90
60309;DHT22;50313;52.894;6.492;2023-05-10T12:03:47;15.90;99.90
60309;DHT22;50313;52.894;6.492;2023-05-10T12:06:13;15.90;99.90
60309;DHT22;50313;52.894;6.492;2023-05-10T12:08:47;15.70;99.90
60309;DHT22;50313;52.894;6.492;2023-05-10T12:11:16;15.60;99.90
60309;DHT22;50313;52.894;6.492;2023-05-10T12:13:43;15.50;99.90
60309;DHT22;50313;52.894;6.492;2023-05-10T12:16:24;15.60;99.90
60309;DHT22;50313;52.894;6.492;2023-05-10T12:18:51;15.50;99.90
60309;DHT22;50313;52.894;6.492;2023-05-10T12:21:18;15.50;99.90
60309;DHT22;50313;52.894;6.492;2023-05-10T12:23:46;15.40;99.90
60309;DHT22;50313;52.894;6.492;2023-05-10T12:26:12;15.30;99.90
60309;DHT22;50313;52.894;6.492;2023-05-10T12:28:38;15.30;99.90
60309;DHT22;50313;52.894;6.492;2023-05-10T12:31:05;15.20;99.90
60309;DHT22;50313;52.894;6.492;2023-05-10T12:33:39;15.20;99.90
60309;DHT22;50313;52.894;6.492;2023-05-10T12:36:07;15.20;99.90
60309;DHT22;50313;52.894;6.492;2023-05-10T12:38:43;15.20;99.90
60309;DHT22;50313;52.894;6.492;2023-05-10T12:41:14;15.20;99.90
60309;DHT22;50313;52.894;6.492;2023-05-10T12:43:41;15.20;99.90
60309;DHT22;50313;52.894;6.492;2023-05-10T12:46:08;15.30;99.90
60309;DHT22;50313;52.894;6.492;2023-05-10T12:48:36;15.20;99.90
60309;DHT22;50313;52.894;6.492;2023-05-10T12:51:02;15.20;99.90
60309;DHT22;50313;52.894;6.492;2023-05-10T12:53:28;15.20;99.90
60309;DHT22;50313;52.894;6.492;2023-05-10T12:55:54;15.20;99.90
60309;DHT22;50313;52.894;6.492;2023-05-10T12:58:20;15.30;99.90
60309;DHT22;50313;52.894;6.492;2023-05-10T13:00:46;15.20;99.90
60309;DHT22;50313;52.894;6.492;2023-05-10T13:03:12;15.30;99.90
60309;DHT22;50313;52.894;6.492;2023-05-10T13:05:38;15.20;99.90
60309;DHT22;50313;52.894;6.492;2023-05-10T13:08:04;15.20;99.90
60309;DHT22;50313;52.894;6.492;2023-05-10T13:10:31;15.30;99.90
60309;DHT22;50313;52.894;6.492;2023-05-10T13:12:57;15.30;99.90
60309;DHT22;50313;52.894;6.492;2023-05-10T13:15:23;15.30;99.90
60309;DHT22;50313;52.894;6.492;2023-05-10T13:17:49;15.30;99.90
60309;DHT22;50313;52.894;6.492;2023-05-10T13:20:15;15.30;99.90
60309;DHT22;50313;52.894;6.492;2023-05-10T13:22:42;15.40;99.90
60309;DHT22;50313;52.894;6.492;2023-05-10T13:25:09;15.40;99.90
60309;DHT22;50313;52.894;6.492;2023-05-10T13:27:34;15.40;99.90
60309;DHT22;50313;52.894;6.492;2023-05-10T13:30:03;15.60;99.90
60309;DHT22;50313;52.894;6.492;2023-05-10T13:32:30;15.60;99.90
60309;DHT22;50313;52.894;6.492;2023-05-10T13:34:56;15.70;99.90
60309;DHT22;50313;52.894;6.492;2023-05-10T13:37:22;15.90;99.90
60309;DHT22;50313;52.894;6.492;2023-05-10T13:39:48;16.00;99.90
60309;DHT22;50313;52.894;6.492;2023-05-10T13:42:14;16.10;99.90
60309;DHT22;50313;52.894;6.492;2023-05-10T13:44:39;16.10;99.90
60309;DHT22;50313;52.894;6.492;2023-05-10T13:47:06;16.10;99.90
60309;DHT22;50313;52.894;6.492;2023-05-10T13:49:31;16.00;99.90
60309;DHT22;50313;52.894;6.492;2023-05-10T13:51:57;15.90;99.90
60309;DHT22;50313;52.894;6.492;2023-05-10T13:54:24;15.80;99.90
60309;DHT22;50313;52.894;6.492;2023-05-10T13:56:49;15.70;99.90
60309;DHT22;50313;52.894;6.492;2023-05-10T13:59:15;15.60;99.90
60309;DHT22;50313;52.894;6.492;2023-05-10T14:01:41;15.50;99.90
60309;DHT22;50313;52.894;6.492;2023-05-10T14:04:08;15.40;99.90
60309;DHT22;50313;52.894;6.492;2023-05-10T14:06:37;15.30;99.90
60309;DHT22;50313;52.894;6.492;2023-05-10T14:09:03;15.30;99.90
60309;DHT22;50313;52.894;6.492;2023-05-10T14:11:28;15.30;99.90
60309;DHT22;50313;52.894;6.492;2023-05-10T14:13:54;15.20;99.90
60309;DHT22;50313;52.894;6.492;2023-05-10T14:16:20;15.10;99.90
60309;DHT22;50313;52.894;6.492;2023-05-10T14:18:46;15.10;99.90
60309;DHT22;50313;52.894;6.492;2023-05-10T14:21:12;15.10;99.90
60309;DHT22;50313;52.894;6.492;2023-05-10T14:23:38;15.20;99.90
60309;DHT22;50313;52.894;6.492;2023-05-10T14:26:04;15.30;99.90
60309;DHT22;50313;52.894;6.492;2023-05-10T14:28:30;15.30;99.90
60309;DHT22;50313;52.894;6.492;2023-05-10T14:30:56;15.40;99.90
60309;DHT22;50313;52.894;6.492;2023-05-10T14:33:21;15.40;99.90
60309;DHT22;50313;52.894;6.492;2023-05-10T14:35:50;15.50;99.90
60309;DHT22;50313;52.894;6.492;2023-05-10T14:38:16;15.50;99.90
60309;DHT22;50313;52.894;6.492;2023-05-10T14:40:45;15.60;99.90
60309;DHT22;50313;52.894;6.492;2023-05-10T14:43:11;15.60;99.90
60309;DHT22;50313;52.894;6.492;2023-05-10T14:45:37;15.60;99.90
60309;DHT22;50313;52.894;6.492;2023-05-10T14:48:03;15.70;99.90
60309;DHT22;50313;52.894;6.492;2023-05-10T14:50:30;15.70;99.90
60309;DHT22;50313;52.894;6.492;2023-05-10T14:52:57;15.80;99.90
60309;DHT22;50313;52.894;6.492;2023-05-10T14:55:23;15.80;99.90
60309;DHT22;50313;52.894;6.492;2023-05-10T14:57:49;15.80;99.90
60309;DHT22;50313;52.894;6.492;2023-05-10T15:00:16;15.70;99.90
60309;DHT22;50313;52.894;6.492;2023-05-10T15:02:42;15.70;99.90
60309;DHT22;50313;52.894;6.492;2023-05-10T15:05:08;15.80;99.90
60309;DHT22;50313;52.894;6.492;2023-05-10T15:07:34;15.80;99.90
60309;DHT22;50313;52.894;6.492;2023-05-10T15:09:59;15.80;99.90
60309;DHT22;50313;52.894;6.492;2023-05-10T15:12:25;15.80;99.90
60309;DHT22;50313;52.894;6.492;2023-05-10T15:14:51;15.90;99.90
60309;DHT22;50313;52.894;6.492;2023-05-10T15:17:17;16.00;99.90
60309;DHT22;50313;52.894;6.492;2023-05-10T15:19:43;16.00;99.90
60309;DHT22;50313;52.894;6.492;2023-05-10T15:22:09;16.00;99.90
60309;DHT22;50313;52.894;6.492;2023-05-10T15:24:34;16.10;99.90
60309;DHT22;50313;52.894;6.492;2023-05-10T15:27:00;16.10;99.90
60309;DHT22;50313;52.894;6.492;2023-05-10T15:29:26;16.10;99.90
60309;DHT22;50313;52.894;6.492;2023-05-10T15:31:52;16.10;99.90
60309;DHT22;50313;52.894;6.492;2023-05-10T15:34:18;16.10;99.90
60309;DHT22;50313;52.894;6.492;2023-05-10T15:36:45;16.10;99.90
60309;DHT22;50313;52.894;6.492;2023-05-10T15:39:13;16.00;99.90
60309;DHT22;50313;52.894;6.492;2023-05-10T15:41:39;16.10;99.90
60309;DHT22;50313;52.894;6.492;2023-05-10T15:44:05;16.00;99.90
60309;DHT22;50313;52.894;6.492;2023-05-10T15:46:31;16.00;99.90
60309;DHT22;50313;52.894;6.492;2023-05-10T15:48:57;16.00;99.90
60309;DHT22;50313;52.894;6.492;2023-05-10T15:51:24;15.80;99.90
60309;DHT22;50313;52.894;6.492;2023-05-10T15:53:50;15.90;99.90
60309;DHT22;50313;52.894;6.492;2023-05-10T15:56:16;15.90;99.90
60309;DHT22;50313;52.894;6.492;2023-05-10T15:58:42;15.90;99.90
60309;DHT22;50313;52.894;6.492;2023-05-10T16:01:09;15.80;99.90
60309;DHT22;50313;52.894;6.492;2023-05-10T16:03:36;15.90;99.90
60309;DHT22;50313;52.894;6.492;2023-05-10T16:06:03;15.80;99.90
60309;DHT22;50313;52.894;6.492;2023-05-10T16:08:29;15.90;99.90